Terminal Aerodrome Forecast
Issued by NWS

Home | Current Version | Previous Version | Text Only | Print | Product List | Glossary On
Versions: 1 2 3 4 5 6 7 8 9 10 11 12 13 14 15 16 17 18 19 20
000
FTUS43 KGRB 291700
TAFAUW
TAF
KAUW 291726Z 2918/3018 15007KT 2SM BR OVC003
      TEMPO 2918/2921 5SM BR OVC006
     FM292100 18008KT P6SM BKN015
     FM300100 17006KT 5SM BR VCSH SCT015 OVC040
      TEMPO 3004/3008 2SM +TSRA BR BKN015CB
     FM300800 20005KT 3SM BR OVC004 PROB30 3008/3014 1SM -SHRA BR
      OVC002
     FM301400 29006KT 5SM -SHRA BR OVC008=

USA.gov is the U.S. government's official web portal to all federal, state and local government web resources and services.